sensor_id;sensor_type;location;lat;lon;timestamp;pressure;altitude;pressure_sealevel;temperature;humidity
71974;BME280;59840;52.122;5.404;2022-09-03T14:59:52;101163.97;;;32.29;28.85
71974;BME280;59840;52.122;5.404;2022-09-03T15:02:37;101160.25;;;32.98;27.68
71974;BME280;59840;52.122;5.404;2022-09-03T15:10:31;101169.91;;;34.09;24.39
71974;BME280;59840;52.122;5.404;2022-09-03T15:13:13;101162.56;;;33.71;23.28
71974;BME280;59840;52.122;5.404;2022-09-03T15:23:51;101162.56;;;33.71;23.70
71974;BME280;59840;52.122;5.404;2022-09-03T15:26:52;101165.09;;;34.45;23.38
71974;BME280;59840;52.122;5.404;2022-09-03T15:38:51;101170.59;;;35.93;23.24
71974;BME280;59840;52.122;5.404;2022-09-03T15:41:29;101179.69;;;36.21;22.78
71974;BME280;59840;52.122;5.404;2022-09-03T15:44:00;101176.47;;;36.30;21.40
71974;BME280;59840;52.122;5.404;2022-09-03T15:46:50;101174.94;;;36.55;21.14
71974;BME280;59840;52.122;5.404;2022-09-03T15:55:00;101175.53;;;36.97;21.42
71974;BME280;59840;52.122;5.404;2022-09-03T16:05:18;101172.25;;;37.52;18.18
71974;BME280;59840;52.122;5.404;2022-09-03T16:10:38;101167.00;;;37.81;19.97
71974;BME280;59840;52.122;5.404;2022-09-03T16:13:23;101168.47;;;37.86;19.31
71974;BME280;59840;52.122;5.404;2022-09-03T16:16:03;101169.91;;;37.74;18.80
71974;BME280;59840;52.122;5.404;2022-09-03T16:18:37;101175.09;;;36.72;19.60
71974;BME280;59840;52.122;5.404;2022-09-03T16:21:42;101170.81;;;37.87;19.40
71974;BME280;59840;52.122;5.404;2022-09-03T16:24:36;101174.06;;;38.22;18.76
71974;BME280;59840;52.122;5.404;2022-09-03T16:27:23;101175.56;;;38.63;18.45
71974;BME280;59840;52.122;5.404;2022-09-03T16:30:05;101173.66;;;38.60;18.40
71974;BME280;59840;52.122;5.404;2022-09-03T16:32:40;101180.34;;;38.78;18.69
71974;BME280;59840;52.122;5.404;2022-09-03T16:40:41;101178.94;;;38.50;19.52
71974;BME280;59840;52.122;5.404;2022-09-03T16:43:21;101169.19;;;38.66;19.83
71974;BME280;59840;52.122;5.404;2022-09-03T16:46:17;101170.91;;;38.92;19.55
71974;BME280;59840;52.122;5.404;2022-09-03T16:49:08;101170.94;;;38.56;19.41
71974;BME280;59840;52.122;5.404;2022-09-03T16:51:46;101174.53;;;37.34;21.15
71974;BME280;59840;52.122;5.404;2022-09-03T17:00:16;101170.41;;;36.08;21.14
71974;BME280;59840;52.122;5.404;2022-09-03T17:10:53;101169.84;;;30.48;29.94
71974;BME280;59840;52.122;5.404;2022-09-03T17:16:08;101178.34;;;29.37;31.50
71974;BME280;59840;52.122;5.404;2022-09-03T17:29:16;101190.25;;;27.47;38.39
71974;BME280;59840;52.122;5.404;2022-09-03T17:31:57;101188.59;;;27.26;38.28
71974;BME280;59840;52.122;5.404;2022-09-03T17:42:53;101196.09;;;25.97;43.18
71974;BME280;59840;52.122;5.404;2022-09-03T17:50:54;101205.91;;;25.32;44.56
71974;BME280;59840;52.122;5.404;2022-09-03T17:53:31;101213.44;;;25.14;45.91
71974;BME280;59840;52.122;5.404;2022-09-03T17:56:01;101214.19;;;24.82;46.31
71974;BME280;59840;52.122;5.404;2022-09-03T17:58:44;101211.63;;;24.64;47.11
71974;BME280;59840;52.122;5.404;2022-09-03T18:01:18;101220.50;;;24.44;49.20
71974;BME280;59840;52.122;5.404;2022-09-03T18:06:29;101227.50;;;23.86;50.99
71974;BME280;59840;52.122;5.404;2022-09-03T18:09:11;101235.19;;;23.58;51.50
71974;BME280;59840;52.122;5.404;2022-09-03T18:11:50;101234.13;;;23.25;51.57
71974;BME280;59840;52.122;5.404;2022-09-03T18:14:29;101238.75;;;23.07;51.32
71974;BME280;59840;52.122;5.404;2022-09-03T18:17:21;101241.44;;;22.90;51.84
71974;BME280;59840;52.122;5.404;2022-09-03T18:19:57;101241.78;;;22.80;52.46
71974;BME280;59840;52.122;5.404;2022-09-03T18:22:53;101251.69;;;22.62;53.86
71974;BME280;59840;52.122;5.404;2022-09-03T18:25:43;101262.41;;;22.36;55.48
71974;BME280;59840;52.122;5.404;2022-09-03T18:28:58;101256.19;;;22.10;56.12
71974;BME280;59840;52.122;5.404;2022-09-03T18:31:42;101263.97;;;21.89;55.77
71974;BME280;59840;52.122;5.404;2022-09-03T18:34:30;101266.94;;;21.79;55.02
71974;BME280;59840;52.122;5.404;2022-09-03T18:37:20;101270.81;;;21.64;55.99
71974;BME280;59840;52.122;5.404;2022-09-03T18:40:07;101271.03;;;21.45;57.05
71974;BME280;59840;52.122;5.404;2022-09-03T18:46:09;101275.19;;;21.15;56.45
71974;BME280;59840;52.122;5.404;2022-09-03T18:49:30;101281.34;;;20.93;58.00
71974;BME280;59840;52.122;5.404;2022-09-03T18:58:52;101289.47;;;20.52;59.36
71974;BME280;59840;52.122;5.404;2022-09-03T19:01:42;101296.50;;;20.34;61.50
71974;BME280;59840;52.122;5.404;2022-09-03T19:10:32;101304.13;;;20.00;63.10
71974;BME280;59840;52.122;5.404;2022-09-03T19:13:35;101307.69;;;19.95;63.18
71974;BME280;59840;52.122;5.404;2022-09-03T19:16:40;101311.03;;;19.87;63.13
71974;BME280;59840;52.122;5.404;2022-09-03T19:22:30;101323.41;;;19.69;63.25
71974;BME280;59840;52.122;5.404;2022-09-03T19:25:17;101326.88;;;19.70;63.58
71974;BME280;59840;52.122;5.404;2022-09-03T19:28:22;101325.16;;;19.60;63.08
71974;BME280;59840;52.122;5.404;2022-09-03T19:37:23;101327.75;;;19.09;64.66
71974;BME280;59840;52.122;5.404;2022-09-03T19:55:33;101339.44;;;18.75;65.78
71974;BME280;59840;52.122;5.404;2022-09-03T19:58:23;101338.50;;;18.66;66.26
71974;BME280;59840;52.122;5.404;2022-09-03T20:01:11;101339.72;;;18.50;66.69
71974;BME280;59840;52.122;5.404;2022-09-03T20:03:59;101344.59;;;18.43;66.19
71974;BME280;59840;52.122;5.404;2022-09-03T20:06:46;101343.94;;;18.32;66.13
71974;BME280;59840;52.122;5.404;2022-09-03T20:09:38;101348.81;;;18.25;65.87
71974;BME280;59840;52.122;5.404;2022-09-03T20:12:28;101346.72;;;18.22;66.17
71974;BME280;59840;52.122;5.404;2022-09-03T20:14:58;101349.97;;;18.14;66.59
71974;BME280;59840;52.122;5.404;2022-09-03T20:20:35;101350.44;;;17.97;67.49
71974;BME280;59840;52.122;5.404;2022-09-03T20:23:21;101349.94;;;17.90;67.45
71974;BME280;59840;52.122;5.404;2022-09-03T20:45:00;101372.81;;;17.23;68.25
71974;BME280;59840;52.122;5.404;2022-09-03T20:56:27;101367.31;;;17.04;68.63
71974;BME280;59840;52.122;5.404;2022-09-03T20:59:05;101378.50;;;17.01;69.50
71974;BME280;59840;52.122;5.404;2022-09-03T21:10:00;101382.06;;;16.82;69.96
71974;BME280;59840;52.122;5.404;2022-09-03T21:12:41;101383.69;;;16.78;70.25
71974;BME280;59840;52.122;5.404;2022-09-03T21:15:27;101388.25;;;16.67;70.79
71974;BME280;59840;52.122;5.404;2022-09-03T21:21:14;101381.03;;;16.67;70.52
71974;BME280;59840;52.122;5.404;2022-09-03T21:23:46;101391.19;;;16.60;70.90
71974;BME280;59840;52.122;5.404;2022-09-03T21:26:25;101392.25;;;16.54;70.96
71974;BME280;59840;52.122;5.404;2022-09-03T21:29:01;101386.69;;;16.46;71.98
71974;BME280;59840;52.122;5.404;2022-09-03T21:31:36;101384.81;;;16.41;71.74
71974;BME280;59840;52.122;5.404;2022-09-03T21:34:20;101393.88;;;16.45;71.05
71974;BME280;59840;52.122;5.404;2022-09-03T21:36:50;101395.19;;;16.42;71.72
71974;BME280;59840;52.122;5.404;2022-09-03T21:39:25;101399.19;;;16.35;71.59
71974;BME280;59840;52.122;5.404;2022-09-03T21:42:03;101390.97;;;16.26;72.27
71974;BME280;59840;52.122;5.404;2022-09-03T21:47:15;101404.03;;;16.07;72.22
71974;BME280;59840;52.122;5.404;2022-09-03T21:52:21;101402.69;;;16.00;73.49
71974;BME280;59840;52.122;5.404;2022-09-03T21:54:50;101401.63;;;15.96;73.00
71974;BME280;59840;52.122;5.404;2022-09-03T21:57:43;101399.00;;;15.91;72.91
71974;BME280;59840;52.122;5.404;2022-09-03T22:00:17;101409.88;;;15.84;73.80
71974;BME280;59840;52.122;5.404;2022-09-03T22:02:45;101408.03;;;15.85;73.27
71974;BME280;59840;52.122;5.404;2022-09-03T22:05:14;101415.75;;;15.81;73.57
71974;BME280;59840;52.122;5.404;2022-09-03T22:07:57;101410.94;;;15.78;73.41
71974;BME280;59840;52.122;5.404;2022-09-03T22:10:49;101410.94;;;15.78;73.31
71974;BME280;59840;52.122;5.404;2022-09-03T22:13:41;101415.44;;;15.67;74.32
71974;BME280;59840;52.122;5.404;2022-09-03T22:16:36;101408.50;;;15.61;74.04
71974;BME280;59840;52.122;5.404;2022-09-03T22:19:04;101407.22;;;15.59;74.98
71974;BME280;59840;52.122;5.404;2022-09-03T22:21:53;101413.81;;;15.51;74.17
71974;BME280;59840;52.122;5.404;2022-09-03T22:30:12;101426.84;;;15.53;74.45
71974;BME280;59840;52.122;5.404;2022-09-03T22:33:13;101433.19;;;15.41;74.52
71974;BME280;59840;52.122;5.404;2022-09-03T22:35:47;101438.47;;;15.31;75.25
71974;BME280;59840;52.122;5.404;2022-09-03T22:38:32;101438.19;;;15.28;74.99
71974;BME280;59840;52.122;5.404;2022-09-03T22:43:45;101436.06;;;15.30;73.60
71974;BME280;59840;52.122;5.404;2022-09-03T22:46:19;101434.19;;;15.25;74.46
71974;BME280;59840;52.122;5.404;2022-09-03T22:49:03;101446.97;;;15.23;74.58
71974;BME280;59840;52.122;5.404;2022-09-03T22:54:32;101448.00;;;15.27;74.42
71974;BME280;59840;52.122;5.404;2022-09-03T22:57:03;101439.47;;;15.15;74.25
71974;BME280;59840;52.122;5.404;2022-09-03T22:59:37;101438.41;;;15.11;74.38
71974;BME280;59840;52.122;5.404;2022-09-03T23:02:21;101434.59;;;14.97;75.36
71974;BME280;59840;52.122;5.404;2022-09-03T23:05:26;101447.34;;;14.95;75.11
71974;BME280;59840;52.122;5.404;2022-09-03T23:08:22;101453.16;;;14.92;76.11
71974;BME280;59840;52.122;5.404;2022-09-03T23:15:56;101458.19;;;14.83;76.38
71974;BME280;59840;52.122;5.404;2022-09-03T23:18:27;101458.97;;;14.79;76.97
71974;BME280;59840;52.122;5.404;2022-09-03T23:21:06;101457.31;;;14.72;77.11
71974;BME280;59840;52.122;5.404;2022-09-03T23:23:41;101461.84;;;14.72;78.08
71974;BME280;59840;52.122;5.404;2022-09-03T23:26:21;101468.97;;;14.66;77.74
71974;BME280;59840;52.122;5.404;2022-09-03T23:28:58;101465.25;;;14.67;78.17
71974;BME280;59840;52.122;5.404;2022-09-03T23:31:28;101468.16;;;14.66;77.67
71974;BME280;59840;52.122;5.404;2022-09-03T23:33:54;101468.16;;;14.66;77.74
71974;BME280;59840;52.122;5.404;2022-09-03T23:36:50;101460.44;;;14.64;77.54
71974;BME280;59840;52.122;5.404;2022-09-03T23:48:20;101465.00;;;14.37;78.95
71974;BME280;59840;52.122;5.404;2022-09-03T23:51:07;101468.47;;;14.37;79.25
71974;BME280;59840;52.122;5.404;2022-09-03T23:59:23;101463.81;;;14.23;78.87
